Time;durP1;ratioP1;P1;durP2;ratioP2;P2;SDS_P1;SDS_P2;PMS_P1;PMS_P2;Temp;Humidity;BMP_temperature;BMP_pressure;BME280_temperature;BME280_humidity;BME280_pressure;Samples;Min_cycle;Max_cycle;Signal;HPM_P1;HPM_P2
2023/01/01 00:01:12;;;;;;;185.32;122.82;;;13.40;72.70;;;;;;4999808;28;20036;-81
2023/01/01 00:03:39;;;;;;;167.05;108.45;;;13.50;72.70;;;;;;5015600;28;20183;-80
2023/01/01 00:06:07;;;;;;;151.10;97.00;;;13.50;72.20;;;;;;5062007;28;20041;-78
2023/01/01 00:08:34;;;;;;;134.88;89.63;;;13.50;71.40;;;;;;5019219;28;20044;-91
2023/01/01 00:11:01;;;;;;;115.88;74.53;;;13.50;70.90;;;;;;5040762;28;20072;-77
2023/01/01 00:13:27;;;;;;;121.32;76.18;;;13.40;70.20;;;;;;5033180;28;20171;-82
2023/01/01 00:15:53;;;;;;;107.70;70.82;;;13.40;70.90;;;;;;5032726;28;20029;-82
2023/01/01 00:18:19;;;;;;;105.03;64.18;;;13.40;71.00;;;;;;5021625;28;20060;-82
2023/01/01 00:20:45;;;;;;;92.22;60.75;;;13.40;70.60;;;;;;5037894;28;20033;-83
2023/01/01 00:23:11;;;;;;;85.63;56.85;;;13.40;70.30;;;;;;5042494;28;20148;-83
2023/01/01 00:25:40;;;;;;;81.95;52.38;;;13.30;70.10;;;;;;5039965;28;20044;-83
2023/01/01 00:28:08;;;;;;;82.53;52.58;;;13.30;70.70;;;;;;5052169;28;20128;-85
2023/01/01 00:30:38;;;;;;;72.50;46.95;;;13.30;70.10;;;;;;5056070;28;20128;-82
2023/01/01 00:33:03;;;;;;;66.57;43.65;;;13.30;70.00;;;;;;5035848;28;20600;-81
2023/01/01 00:35:29;;;;;;;66.32;43.22;;;13.20;69.90;;;;;;5033823;28;20415;-82
2023/01/01 00:37:55;;;;;;;65.55;41.47;;;13.20;69.90;;;;;;5033380;28;21133;-82
2023/01/01 00:40:22;;;;;;;61.42;39.83;;;13.20;70.00;;;;;;5033932;28;20565;-85
2023/01/01 00:42:48;;;;;;;60.30;38.92;;;13.10;70.00;;;;;;5034799;28;20033;-78
2023/01/01 00:45:15;;;;;;;58.83;37.80;;;13.10;70.00;;;;;;5035665;28;20048;-78
2023/01/01 00:47:40;;;;;;;56.45;35.75;;;13.10;70.20;;;;;;5018029;28;20045;-82
2023/01/01 00:50:07;;;;;;;50.63;32.78;;;13.00;70.20;;;;;;5035728;28;20045;-81
2023/01/01 00:52:33;;;;;;;49.50;32.28;;;13.00;70.20;;;;;;5068922;28;20416;-83
2023/01/01 00:54:59;;;;;;;49.28;31.67;;;13.00;70.20;;;;;;5036919;28;20039;-82
2023/01/01 00:57:25;;;;;;;48.05;30.95;;;12.90;70.30;;;;;;5017662;28;20226;-82
2023/01/01 00:59:50;;;;;;;42.40;28.50;;;12.90;70.30;;;;;;5066683;28;20713;-82
2023/01/01 01:02:16;;;;;;;42.95;28.17;;;12.90;70.30;;;;;;5035592;28;20045;-82
2023/01/01 01:04:42;;;;;;;42.33;27.77;;;12.80;70.40;;;;;;5035546;28;20438;-83
2023/01/01 01:07:08;;;;;;;40.65;25.88;;;12.80;70.40;;;;;;5040466;28;20028;-83
2023/01/01 01:09:34;;;;;;;37.80;25.33;;;12.80;70.50;;;;;;5033809;28;20420;-83
2023/01/01 01:12:00;;;;;;;38.25;25.13;;;12.70;70.50;;;;;;5051858;28;20069;-83
2023/01/01 01:14:26;;;;;;;37.55;25.25;;;12.70;70.60;;;;;;5034382;28;20523;-82
2023/01/01 01:16:52;;;;;;;39.50;24.92;;;12.70;70.70;;;;;;5035349;28;20033;-82
2023/01/01 01:19:22;;;;;;;35.75;23.52;;;12.70;70.80;;;;;;5038679;28;20531;-82
2023/01/01 01:21:50;;;;;;;31.65;21.08;;;12.70;70.90;;;;;;5035903;28;20167;-82
2023/01/01 01:24:16;;;;;;;33.83;22.08;;;12.60;70.90;;;;;;5034676;28;20453;-81
2023/01/01 01:26:41;;;;;;;30.42;20.80;;;12.60;71.00;;;;;;5035337;28;20037;-82
2023/01/01 01:29:08;;;;;;;30.83;19.63;;;12.60;71.10;;;;;;5035773;28;20656;-81
2023/01/01 01:31:34;;;;;;;29.30;20.20;;;12.50;71.40;;;;;;5017857;28;20376;-80
2023/01/01 01:34:00;;;;;;;27.60;17.95;;;12.50;71.50;;;;;;5068011;28;20797;-80
2023/01/01 01:36:28;;;;;;;26.85;17.55;;;12.50;71.70;;;;;;5033628;28;20044;-80
2023/01/01 01:38:55;;;;;;;28.17;17.65;;;12.50;71.80;;;;;;5025311;28;20044;-80
2023/01/01 01:41:23;;;;;;;27.65;18.23;;;12.50;71.90;;;;;;5039043;28;20392;-80
2023/01/01 01:44:34;;;;;;;24.75;16.73;;;12.40;72.00;;;;;;5039120;28;20048;-80
2023/01/01 01:47:02;;;;;;;25.00;15.32;;;12.40;72.20;;;;;;5011124;28;20045;-80
2023/01/01 01:49:30;;;;;;;20.40;15.32;;;12.40;72.20;;;;;;5027553;28;20040;-80
2023/01/01 01:51:59;;;;;;;23.48;15.45;;;12.40;72.30;;;;;;5022898;28;20046;-81
2023/01/01 01:54:27;;;;;;;21.58;14.73;;;12.40;72.30;;;;;;5027562;28;20129;-81
2023/01/01 01:56:59;;;;;;;22.17;14.32;;;12.40;72.40;;;;;;5011493;28;20033;-81
2023/01/01 01:59:32;;;;;;;21.63;14.80;;;12.30;72.40;;;;;;4993321;28;20037;-79
2023/01/01 02:01:59;;;;;;;20.38;13.60;;;12.30;72.40;;;;;;5009921;28;20443;-80
2023/01/01 02:04:25;;;;;;;17.67;11.90;;;12.30;72.50;;;;;;5009013;28;20041;-80
2023/01/01 02:06:53;;;;;;;19.45;12.52;;;12.30;72.50;;;;;;5026366;28;20598;-81
2023/01/01 02:09:19;;;;;;;18.90;12.52;;;12.20;72.40;;;;;;5026152;28;20488;-80
2023/01/01 02:11:45;;;;;;;18.23;11.70;;;12.20;72.40;;;;;;4992766;28;20040;-80
2023/01/01 02:14:11;;;;;;;16.08;11.05;;;12.20;72.50;;;;;;5009616;28;20052;-79
2023/01/01 02:16:54;;;;;;;16.52;10.88;;;12.20;72.50;;;;;;5025656;28;20513;-80
2023/01/01 02:19:22;;;;;;;16.90;10.27;;;12.20;72.60;;;;;;5026223;28;20108;-80
2023/01/01 02:22:22;;;;;;;15.15;9.80;;;12.20;72.50;;;;;;4989204;28;20056;-78
2023/01/01 02:25:03;;;;;;;14.32;9.25;;;12.10;72.60;;;;;;5069206;28;20405;-77
2023/01/01 02:28:05;;;;;;;14.30;9.50;;;12.10;72.60;;;;;;5043702;28;20037;-77
2023/01/01 02:30:33;;;;;;;13.15;9.25;;;12.10;72.60;;;;;;5028269;28;20107;-79
2023/01/01 02:33:11;;;;;;;20.10;12.52;;;12.10;72.70;;;;;;5025388;28;20065;-79
2023/01/01 02:35:57;;;;;;;19.67;13.02;;;12.20;78.70;;;;;;5036037;28;20037;-81
2023/01/01 02:38:52;;;;;;;17.67;12.05;;;12.20;78.40;;;;;;5036360;28;20034;-79
2023/01/01 02:41:26;;;;;;;17.80;10.07;;;12.30;77.60;;;;;;5035432;28;20188;-80
2023/01/01 02:43:53;;;;;;;13.98;9.35;;;12.30;76.00;;;;;;5019378;28;20040;-79
2023/01/01 02:46:18;;;;;;;11.52;8.35;;;12.30;75.10;;;;;;5049621;28;20037;-81
2023/01/01 02:48:47;;;;;;;12.57;8.13;;;12.30;74.40;;;;;;5053755;28;20032;-83
2023/01/01 02:51:13;;;;;;;12.65;7.72;;;12.30;74.10;;;;;;5037525;28;20083;-82
2023/01/01 02:54:07;;;;;;;10.40;7.90;;;12.30;73.90;;;;;;5023760;28;20034;-82
2023/01/01 02:57:16;;;;;;;12.00;7.45;;;12.20;73.80;;;;;;5038114;28;20037;-81
2023/01/01 03:00:23;;;;;;;10.48;7.50;;;12.20;73.80;;;;;;5017829;28;20090;-82
2023/01/01 03:03:03;;;;;;;;;;;12.20;73.70;;;;;;4994350;28;20441;-81
2023/01/01 03:08:53;;;;;;;8.35;6.13;;;12.20;73.60;;;;;;5035930;28;20550;-81
2023/01/01 03:11:23;;;;;;;7.53;5.50;;;12.10;73.60;;;;;;5034592;28;20074;-80
2023/01/01 03:14:11;;;;;;;9.63;6.07;;;12.10;73.60;;;;;;5034853;28;20442;-80
2023/01/01 03:16:44;;;;;;;8.45;6.20;;;12.10;73.70;;;;;;5001662;28;20048;-79
2023/01/01 03:19:21;;;;;;;8.60;5.22;;;12.10;74.30;;;;;;5018641;28;20032;-80
2023/01/01 03:22:04;;;;;;;8.30;5.68;;;12.10;73.80;;;;;;5019838;28;20706;-83
2023/01/01 03:24:44;;;;;;;7.25;5.30;;;12.00;73.90;;;;;;5016885;28;20067;-83
2023/01/01 03:27:18;;;;;;;6.70;5.32;;;12.00;73.90;;;;;;5001195;28;20476;-80
2023/01/01 03:29:47;;;;;;;5.60;4.97;;;12.00;74.00;;;;;;5026808;28;20025;-79
2023/01/01 03:32:19;;;;;;;6.90;4.72;;;12.00;74.10;;;;;;5033703;28;20460;-78
2023/01/01 03:34:52;;;;;;;6.47;5.40;;;12.00;74.10;;;;;;5036589;28;20031;-80
2023/01/01 03:37:26;;;;;;;6.63;4.90;;;12.00;74.20;;;;;;5037076;28;20565;-80
2023/01/01 03:39:56;;;;;;;6.35;4.43;;;12.00;74.30;;;;;;5023651;28;20511;-80
2023/01/01 03:42:28;;;;;;;5.50;4.15;;;12.00;74.30;;;;;;5035361;28;20030;-80
2023/01/01 03:45:02;;;;;;;5.60;4.40;;;12.00;74.30;;;;;;5034991;28;20037;-80
2023/01/01 03:47:29;;;;;;;5.15;4.10;;;12.00;74.30;;;;;;5068732;28;20049;-80
2023/01/01 03:49:56;;;;;;;5.35;4.38;;;12.00;74.30;;;;;;5068163;28;20450;-81
2023/01/01 03:52:30;;;;;;;5.22;4.05;;;12.00;74.30;;;;;;5018870;28;20487;-80
2023/01/01 03:55:26;;;;;;;4.78;3.80;;;12.00;74.30;;;;;;5052272;28;20074;-80
2023/01/01 03:58:04;;;;;;;5.32;4.10;;;11.90;74.20;;;;;;5036560;28;20128;-85
2023/01/01 04:00:34;;;;;;;4.32;3.65;;;11.90;74.30;;;;;;5039532;28;20033;-85
2023/01/01 04:03:07;;;;;;;6.03;4.22;;;11.90;74.30;;;;;;5035373;28;20038;-84
2023/01/01 04:05:40;;;;;;;4.40;3.47;;;11.90;74.50;;;;;;5040099;28;20036;-79
2023/01/01 04:08:07;;;;;;;8.38;3.70;;;11.90;74.60;;;;;;5035783;28;20526;-81
2023/01/01 04:10:36;;;;;;;5.65;4.00;;;11.90;74.70;;;;;;5023658;28;20041;-81
2023/01/01 04:13:04;;;;;;;5.18;3.60;;;11.90;74.80;;;;;;5032307;28;20025;-81
2023/01/01 04:15:31;;;;;;;4.95;3.40;;;11.90;74.80;;;;;;5035892;28;20041;-81
2023/01/01 04:17:57;;;;;;;4.38;3.50;;;11.80;74.70;;;;;;5034659;28;20028;-81
2023/01/01 04:20:24;;;;;;;5.80;3.70;;;11.90;74.80;;;;;;5035259;28;20770;-79
2023/01/01 04:22:50;;;;;;;4.68;3.72;;;11.90;74.80;;;;;;5038271;28;20424;-81
2023/01/01 04:25:16;;;;;;;6.05;3.83;;;11.90;74.90;;;;;;5038457;28;20036;-80
2023/01/01 04:27:43;;;;;;;5.00;3.72;;;11.80;74.90;;;;;;5021219;28;20049;-78
2023/01/01 04:30:12;;;;;;;4.38;3.40;;;11.80;75.00;;;;;;4990893;28;20397;-80
2023/01/01 04:32:38;;;;;;;5.82;3.38;;;11.80;74.90;;;;;;5061701;28;20029;-85
2023/01/01 04:35:06;;;;;;;4.53;3.38;;;11.80;74.80;;;;;;5015926;28;20106;-81
2023/01/01 04:37:34;;;;;;;3.83;3.25;;;11.80;74.80;;;;;;5032873;28;20455;-82
2023/01/01 04:40:01;;;;;;;4.05;3.40;;;11.80;74.80;;;;;;5016784;28;20029;-81
2023/01/01 04:42:27;;;;;;;4.55;2.78;;;11.80;74.80;;;;;;5064849;28;20108;-80
2023/01/01 04:44:52;;;;;;;3.80;3.33;;;11.80;74.80;;;;;;5048363;28;20069;-80
2023/01/01 04:47:21;;;;;;;4.13;3.35;;;11.80;74.70;;;;;;5034303;28;20531;-81
2023/01/01 04:49:47;;;;;;;3.47;3.17;;;11.80;74.70;;;;;;5032895;28;20500;-82
2023/01/01 04:52:13;;;;;;;3.08;2.78;;;11.80;74.80;;;;;;5032169;28;20404;-82
2023/01/01 04:54:39;;;;;;;4.45;3.22;;;11.80;74.80;;;;;;4999265;28;20135;-83
2023/01/01 04:57:05;;;;;;;3.38;2.90;;;11.80;74.80;;;;;;5018293;28;20582;-82
2023/01/01 04:59:31;;;;;;;3.35;2.83;;;11.70;74.90;;;;;;5067076;28;20396;-83
2023/01/01 05:01:57;;;;;;;3.70;3.22;;;11.70;74.80;;;;;;5035270;28;20040;-83
2023/01/01 05:04:23;;;;;;;3.58;2.95;;;11.70;75.00;;;;;;5034475;28;20498;-83
2023/01/01 05:06:49;;;;;;;3.42;3.08;;;11.80;75.00;;;;;;5036010;28;20049;-83
2023/01/01 05:09:15;;;;;;;4.28;3.15;;;11.70;75.00;;;;;;5034403;28;20598;-83
2023/01/01 05:11:41;;;;;;;3.10;2.67;;;11.70;75.30;;;;;;5035365;28;20404;-82
2023/01/01 05:14:07;;;;;;;4.00;2.42;;;11.70;75.30;;;;;;5021683;28;20029;-86
2023/01/01 05:16:35;;;;;;;5.20;2.75;;;11.70;75.30;;;;;;5034924;28;20049;-86
2023/01/01 05:19:02;;;;;;;3.65;2.78;;;11.70;75.50;;;;;;5036478;28;20029;-85
2023/01/01 05:21:35;;;;;;;3.10;2.80;;;11.70;75.30;;;;;;5040157;28;20029;-85
2023/01/01 05:24:03;;;;;;;3.13;2.65;;;11.70;75.30;;;;;;5006306;28;20053;-81
2023/01/01 05:26:32;;;;;;;3.38;2.90;;;11.70;75.60;;;;;;5070199;28;20040;-85
2023/01/01 05:28:59;;;;;;;3.60;2.75;;;11.70;75.70;;;;;;5019319;28;20083;-84
2023/01/01 05:31:27;;;;;;;4.57;3.00;;;11.70;75.80;;;;;;5036578;28;20074;-84
2023/01/01 05:33:54;;;;;;;3.78;2.70;;;11.70;75.80;;;;;;5042632;28;20444;-84
2023/01/01 05:36:26;;;;;;;2.65;2.45;;;11.70;75.80;;;;;;5034418;28;20038;-83
2023/01/01 05:38:52;;;;;;;5.20;2.70;;;11.70;75.60;;;;;;5039495;28;20029;-84
2023/01/01 05:41:20;;;;;;;2.50;2.30;;;11.70;75.60;;;;;;5030861;28;20038;-83
2023/01/01 05:43:46;;;;;;;2.95;2.25;;;11.70;75.50;;;;;;5046110;28;20037;-83
2023/01/01 05:46:23;;;;;;;2.42;2.22;;;11.70;75.50;;;;;;5074198;28;20086;-84
2023/01/01 05:48:51;;;;;;;2.67;2.30;;;11.60;75.40;;;;;;5035370;28;20514;-84
2023/01/01 05:51:21;;;;;;;2.30;2.10;;;11.70;75.60;;;;;;5035366;28;20488;-83
2023/01/01 05:53:47;;;;;;;2.67;2.42;;;11.70;75.60;;;;;;5036587;28;20417;-83
2023/01/01 05:56:15;;;;;;;2.20;2.00;;;11.70;75.60;;;;;;5050416;28;20130;-84
2023/01/01 05:58:42;;;;;;;2.45;2.22;;;11.70;75.60;;;;;;5034439;28;20565;-83
2023/01/01 06:01:14;;;;;;;4.25;2.28;;;11.70;75.60;;;;;;5068859;28;20091;-83
2023/01/01 06:03:41;;;;;;;2.65;2.20;;;11.70;75.60;;;;;;5017123;28;20463;-82
2023/01/01 06:06:10;;;;;;;2.40;2.20;;;11.70;75.80;;;;;;5050939;28;20568;-81
2023/01/01 06:08:36;;;;;;;2.25;2.05;;;11.70;75.60;;;;;;5034707;28;20095;-83
2023/01/01 06:11:04;;;;;;;2.97;2.20;;;11.70;75.70;;;;;;5066576;28;20034;-80
2023/01/01 06:13:31;;;;;;;2.80;2.33;;;11.70;75.90;;;;;;5036547;28;20083;-82
2023/01/01 06:15:58;;;;;;;2.45;2.13;;;11.70;75.80;;;;;;5051877;28;20029;-80
2023/01/01 06:18:28;;;;;;;2.08;1.98;;;11.70;75.90;;;;;;5018198;28;20522;-83
2023/01/01 06:20:53;;;;;;;3.85;2.40;;;11.70;75.80;;;;;;5018921;28;20034;-88
2023/01/01 06:23:19;;;;;;;2.10;2.00;;;11.60;75.90;;;;;;5035777;28;20103;-87
2023/01/01 06:25:45;;;;;;;2.95;2.10;;;11.60;76.30;;;;;;5008438;28;20029;-88
2023/01/01 06:28:12;;;;;;;2.30;2.10;;;11.70;75.90;;;;;;5037775;28;20052;-84
2023/01/01 06:30:38;;;;;;;2.30;2.03;;;11.70;75.80;;;;;;5037309;28;20029;-85
2023/01/01 06:33:05;;;;;;;2.28;2.08;;;11.60;75.60;;;;;;5019826;28;20029;-85
2023/01/01 06:35:31;;;;;;;2.03;1.83;;;11.60;75.50;;;;;;5052837;28;20508;-83
2023/01/01 06:37:59;;;;;;;2.10;1.90;;;11.60;75.60;;;;;;5053230;28;20032;-83
2023/01/01 06:40:25;;;;;;;2.22;2.03;;;11.60;75.50;;;;;;5036828;28;20476;-84
2023/01/01 06:42:51;;;;;;;1.95;1.80;;;11.60;75.60;;;;;;5021714;28;20037;-86
2023/01/01 06:45:17;;;;;;;3.40;2.20;;;11.60;75.50;;;;;;5040969;28;20033;-90
2023/01/01 06:47:43;;;;;;;2.00;1.80;;;11.60;75.60;;;;;;5025726;28;20043;-87
2023/01/01 06:50:09;;;;;;;3.78;1.90;;;11.60;75.60;;;;;;5026510;28;20022;-80
2023/01/01 06:52:35;;;;;;;3.28;2.00;;;11.60;75.60;;;;;;5056795;28;20120;-85
2023/01/01 06:55:01;;;;;;;2.92;1.80;;;11.60;75.70;;;;;;5040558;28;20091;-86
2023/01/01 06:57:27;;;;;;;2.75;2.00;;;11.60;75.80;;;;;;5037013;28;20064;-84
2023/01/01 06:59:53;;;;;;;1.98;1.77;;;11.60;75.70;;;;;;5047336;28;20042;-85
2023/01/01 07:02:19;;;;;;;1.83;1.73;;;11.60;75.60;;;;;;5042293;28;20052;-84
2023/01/01 07:04:45;;;;;;;1.70;1.60;;;11.60;75.60;;;;;;5060723;28;20570;-85
2023/01/01 07:07:11;;;;;;;1.90;1.58;;;11.60;75.70;;;;;;5032198;28;20376;-85
2023/01/01 07:09:37;;;;;;;2.08;1.85;;;11.60;75.80;;;;;;5024191;28;20074;-87
2023/01/01 07:12:03;;;;;;;1.52;1.42;;;11.60;75.90;;;;;;5038830;28;20029;-86
2023/01/01 07:14:29;;;;;;;1.50;1.40;;;11.60;75.70;;;;;;5050977;28;20037;-86
2023/01/01 07:16:55;;;;;;;1.90;1.75;;;11.60;75.80;;;;;;5019731;28;20435;-87
2023/01/01 07:19:20;;;;;;;1.58;1.48;;;11.60;75.60;;;;;;5038215;28;20116;-87
2023/01/01 07:21:54;;;;;;;1.75;1.65;;;11.60;75.70;;;;;;5054164;28;20711;-88
2023/01/01 07:24:20;;;;;;;1.83;1.60;;;11.60;75.90;;;;;;5035693;28;20056;-85
2023/01/01 07:26:47;;;;;;;1.80;1.70;;;11.60;75.80;;;;;;5035648;28;20052;-85
2023/01/01 07:29:13;;;;;;;1.48;1.38;;;11.60;75.90;;;;;;4995002;28;20064;-83
2023/01/01 07:31:41;;;;;;;1.75;1.65;;;11.60;75.80;;;;;;5035486;28;20045;-81
2023/01/01 07:34:14;;;;;;;1.85;1.75;;;11.60;75.80;;;;;;5051145;28;20029;-86
2023/01/01 07:36:41;;;;;;;2.42;1.55;;;11.60;76.00;;;;;;5041762;28;20800;-86
2023/01/01 07:39:08;;;;;;;1.45;1.35;;;11.60;76.00;;;;;;5057463;28;20033;-83
2023/01/01 07:41:34;;;;;;;3.35;1.88;;;11.60;75.90;;;;;;5076587;28;20050;-83
2023/01/01 07:44:00;;;;;;;1.83;1.60;;;11.60;76.10;;;;;;5036163;28;20490;-81
2023/01/01 07:46:26;;;;;;;2.05;1.67;;;11.60;76.10;;;;;;5034359;28;20037;-86
2023/01/01 07:48:52;;;;;;;1.98;1.80;;;11.60;76.00;;;;;;5019499;28;20049;-81
2023/01/01 07:51:18;;;;;;;1.70;1.60;;;11.60;76.20;;;;;;5035942;28;20673;-87
2023/01/01 07:53:44;;;;;;;2.30;1.60;;;11.60;76.30;;;;;;5034845;28;20076;-86
2023/01/01 07:56:10;;;;;;;2.30;1.90;;;11.60;76.20;;;;;;5034358;28;20128;-86
2023/01/01 07:58:40;;;;;;;1.50;1.40;;;11.60;76.80;;;;;;5036365;28;20033;-86
2023/01/01 08:01:10;;;;;;;1.80;1.60;;;11.60;76.20;;;;;;5038465;28;20025;-84
2023/01/01 08:03:36;;;;;;;1.95;1.85;;;11.60;76.20;;;;;;5024127;28;20039;-85
2023/01/01 08:06:10;;;;;;;2.03;1.83;;;11.60;76.10;;;;;;5031554;28;20647;-82
2023/01/01 08:08:37;;;;;;;1.50;1.40;;;11.60;76.20;;;;;;5037648;28;20626;-85
2023/01/01 08:11:03;;;;;;;3.10;1.58;;;11.60;76.10;;;;;;5017829;28;20132;-84
2023/01/01 08:13:29;;;;;;;2.63;1.77;;;11.60;76.10;;;;;;5036738;28;20048;-84
2023/01/01 08:15:57;;;;;;;3.67;1.88;;;11.60;76.10;;;;;;5021762;28;20531;-83
2023/01/01 08:18:23;;;;;;;1.70;1.60;;;11.60;76.10;;;;;;5036097;28;20033;-86
2023/01/01 08:20:49;;;;;;;1.80;1.70;;;11.60;76.10;;;;;;5027810;28;20030;-82
2023/01/01 08:23:15;;;;;;;2.08;1.88;;;11.60;76.10;;;;;;5026630;28;20045;-85
2023/01/01 08:25:41;;;;;;;2.55;1.60;;;11.60;76.00;;;;;;5033197;28;20036;-86
2023/01/01 08:28:08;;;;;;;3.30;1.70;;;11.60;76.00;;;;;;5027590;28;20517;-82
2023/01/01 08:30:34;;;;;;;2.78;1.70;;;11.60;76.20;;;;;;5065955;28;20107;-81
2023/01/01 08:33:00;;;;;;;2.53;1.75;;;11.60;76.30;;;;;;5052168;28;20034;-82
2023/01/01 08:35:26;;;;;;;1.92;1.80;;;11.60;76.40;;;;;;5036629;28;20088;-84
2023/01/01 08:37:52;;;;;;;2.67;1.75;;;11.60;76.40;;;;;;5037414;28;20029;-84
2023/01/01 08:40:18;;;;;;;2.53;1.92;;;11.60;76.30;;;;;;5033928;28;20031;-82
2023/01/01 08:42:44;;;;;;;2.22;1.70;;;11.60;76.30;;;;;;5035072;28;20029;-80
2023/01/01 08:45:10;;;;;;;2.08;1.85;;;11.60;76.50;;;;;;5034807;28;20132;-85
2023/01/01 08:47:36;;;;;;;2.25;1.88;;;11.70;76.70;;;;;;5030819;28;20037;-75
2023/01/01 08:50:03;;;;;;;1.75;1.65;;;11.70;76.70;;;;;;5032761;28;20098;-75
2023/01/01 08:52:29;;;;;;;7.07;2.08;;;11.70;76.70;;;;;;5031521;28;20037;-75
2023/01/01 08:54:55;;;;;;;2.10;1.90;;;11.60;76.60;;;;;;5030032;28;20083;-77
2023/01/01 08:57:21;;;;;;;2.10;1.90;;;11.70;76.60;;;;;;5030999;28;20068;-78
2023/01/01 08:59:47;;;;;;;2.13;1.75;;;11.70;76.80;;;;;;5034477;28;20029;-80
2023/01/01 09:02:13;;;;;;;3.50;2.10;;;11.70;76.90;;;;;;5034890;28;20022;-84
2023/01/01 09:04:39;;;;;;;3.20;2.13;;;11.70;77.00;;;;;;5034849;28;20656;-85
2023/01/01 09:07:04;;;;;;;2.78;1.95;;;11.70;77.20;;;;;;5037435;28;20041;-83
2023/01/01 09:09:30;;;;;;;2.20;1.73;;;11.70;77.10;;;;;;5035919;28;20034;-76
2023/01/01 09:12:05;;;;;;;2.08;1.50;;;11.70;77.70;;;;;;5032644;28;20649;-76
2023/01/01 09:14:32;;;;;;;4.50;1.77;;;11.70;79.60;;;;;;5030774;28;20043;-75
2023/01/01 09:16:59;;;;;;;2.33;1.65;;;11.80;80.40;;;;;;5032893;28;20038;-74
2023/01/01 09:19:25;;;;;;;3.10;1.70;;;11.90;81.50;;;;;;5030785;28;20071;-75
2023/01/01 09:21:52;;;;;;;3.08;2.33;;;11.90;81.20;;;;;;5050132;28;20032;-75
2023/01/01 09:24:17;;;;;;;2.92;2.70;;;11.90;78.80;;;;;;5033132;28;20637;-74
2023/01/01 09:26:45;;;;;;;3.00;2.70;;;11.80;76.20;;;;;;5063286;28;20045;-75
2023/01/01 09:29:10;;;;;;;3.85;2.88;;;11.80;75.30;;;;;;5033157;28;20029;-74
2023/01/01 09:31:36;;;;;;;3.47;2.97;;;11.70;74.10;;;;;;5033300;28;20464;-75
2023/01/01 09:34:02;;;;;;;4.45;3.50;;;11.60;73.50;;;;;;5032717;28;20028;-75
2023/01/01 09:36:30;;;;;;;4.22;3.30;;;11.50;73.20;;;;;;5003672;28;20048;-73
2023/01/01 09:38:57;;;;;;;4.15;3.65;;;11.40;73.40;;;;;;5013399;28;20077;-74
2023/01/01 09:41:43;;;;;;;3.97;3.22;;;11.30;73.50;;;;;;5018212;28;20037;-75
2023/01/01 09:44:27;;;;;;;;;;;11.30;73.60;;;;;;5032864;28;20071;-73
2023/01/01 09:46:59;;;;;;;4.50;3.40;;;11.20;73.60;;;;;;5032277;28;19921;-73
2023/01/01 09:49:38;;;;;;;5.60;3.28;;;11.10;73.60;;;;;;5031736;28;20087;-73
2023/01/01 09:52:04;;;;;;;3.92;3.15;;;11.00;74.00;;;;;;5032262;28;20033;-73
2023/01/01 09:54:38;;;;;;;4.72;3.55;;;11.00;74.30;;;;;;5047589;28;20042;-73
2023/01/01 09:57:09;;;;;;;4.35;3.38;;;10.90;74.60;;;;;;5032608;28;20040;-73
2023/01/01 09:59:37;;;;;;;5.38;3.70;;;10.90;74.70;;;;;;5033664;28;20448;-73
2023/01/01 10:02:37;;;;;;;3.85;3.30;;;10.80;74.70;;;;;;5032720;28;20993;-73
2023/01/01 10:05:20;;;;;;;4.05;3.40;;;10.70;74.60;;;;;;5038575;28;20041;-72
2023/01/01 10:07:55;;;;;;;4.43;3.15;;;10.70;75.00;;;;;;5035517;28;20037;-73
2023/01/01 10:10:39;;;;;;;4.20;3.63;;;10.60;75.40;;;;;;5035986;28;20039;-72
2023/01/01 10:13:35;;;;;;;4.60;3.88;;;10.60;75.60;;;;;;5024029;28;20476;-74
2023/01/01 10:16:22;;;;;;;4.93;3.55;;;10.60;75.70;;;;;;5035481;28;21447;-71
2023/01/01 10:18:55;;;;;;;4.63;3.97;;;10.50;75.70;;;;;;5036948;28;20056;-73
2023/01/01 10:21:26;;;;;;;6.40;3.78;;;10.50;76.80;;;;;;5036457;28;20041;-72
2023/01/01 10:23:58;;;;;;;4.65;3.40;;;10.40;76.10;;;;;;5036245;28;20662;-72
2023/01/01 10:26:28;;;;;;;4.63;3.90;;;10.40;76.20;;;;;;5034335;28;20037;-72
2023/01/01 10:29:18;;;;;;;6.45;4.95;;;10.30;76.00;;;;;;5033244;28;20048;-72
2023/01/01 10:31:45;;;;;;;7.25;5.95;;;10.30;76.20;;;;;;5035850;28;20039;-72
2023/01/01 10:34:21;;;;;;;7.72;6.55;;;10.30;76.30;;;;;;5036470;28;20038;-73
2023/01/01 10:36:50;;;;;;;10.25;6.75;;;10.30;76.30;;;;;;5036168;28;20103;-72
2023/01/01 10:39:18;;;;;;;7.78;5.90;;;10.20;77.00;;;;;;5050020;28;20033;-73
2023/01/01 10:41:44;;;;;;;5.82;4.65;;;10.20;76.60;;;;;;5035615;28;20037;-72
2023/01/01 10:44:12;;;;;;;5.90;5.03;;;10.20;76.80;;;;;;5035024;28;20045;-72
2023/01/01 10:46:45;;;;;;;5.38;4.43;;;10.20;76.80;;;;;;5022429;28;20087;-73
2023/01/01 10:49:13;;;;;;;4.88;4.03;;;10.20;76.80;;;;;;5039959;28;20506;-77
2023/01/01 10:51:50;;;;;;;4.82;4.00;;;10.10;76.80;;;;;;5034248;28;20029;-76
2023/01/01 10:54:35;;;;;;;4.72;3.90;;;10.10;77.60;;;;;;5033544;28;20523;-75
2023/01/01 10:57:28;;;;;;;6.35;3.65;;;10.10;77.70;;;;;;5035676;28;20135;-74
2023/01/01 11:00:10;;;;;;;4.65;3.92;;;10.10;77.70;;;;;;5032747;28;20033;-73
2023/01/01 11:02:36;;;;;;;3.72;3.40;;;10.10;77.60;;;;;;5032591;28;20060;-73
2023/01/01 11:05:29;;;;;;;3.40;3.10;;;10.10;77.60;;;;;;5033473;28;20076;-72
2023/01/01 11:07:55;;;;;;;4.70;3.55;;;10.10;77.90;;;;;;5032544;28;20049;-72
2023/01/01 11:10:24;;;;;;;4.38;3.60;;;10.10;78.00;;;;;;5035410;28;20427;-72
2023/01/01 11:12:52;;;;;;;4.38;3.65;;;10.10;77.80;;;;;;5035977;28;20561;-73
2023/01/01 11:15:38;;;;;;;4.32;3.88;;;10.10;77.80;;;;;;5033500;28;20038;-73
2023/01/01 11:18:18;;;;;;;4.38;3.50;;;10.00;77.90;;;;;;5033039;28;20504;-74
2023/01/01 11:20:57;;;;;;;4.13;3.40;;;10.00;78.10;;;;;;5033799;28;20029;-77
2023/01/01 11:23:33;;;;;;;4.22;3.35;;;10.00;78.00;;;;;;5034126;28;20087;-75
2023/01/01 11:26:04;;;;;;;4.15;3.45;;;10.00;78.10;;;;;;5033278;28;20052;-75
2023/01/01 11:28:33;;;;;;;4.63;3.53;;;10.00;78.10;;;;;;5035580;28;20041;-74
2023/01/01 11:31:18;;;;;;;3.97;3.30;;;10.00;78.00;;;;;;5034749;28;20037;-74
2023/01/01 11:33:47;;;;;;;4.30;3.78;;;10.00;78.00;;;;;;5034311;28;20028;-75
2023/01/01 11:36:31;;;;;;;4.63;3.75;;;10.00;78.10;;;;;;5033958;28;20026;-75
2023/01/01 11:39:25;;;;;;;3.40;3.10;;;10.00;78.20;;;;;;5050172;28;20668;-75
2023/01/01 11:41:55;;;;;;;4.35;3.20;;;9.90;78.20;;;;;;5035143;28;20048;-75
2023/01/01 11:44:33;;;;;;;3.47;3.05;;;9.90;78.40;;;;;;5033113;28;20507;-75
2023/01/01 11:46:59;;;;;;;4.88;3.40;;;9.90;78.40;;;;;;5033620;28;20049;-75
2023/01/01 11:49:27;;;;;;;3.22;2.92;;;9.90;78.50;;;;;;5034335;28;20041;-74
2023/01/01 11:51:53;;;;;;;4.38;3.40;;;9.90;78.50;;;;;;5036268;28;20492;-76
2023/01/01 11:54:31;;;;;;;3.80;2.95;;;9.90;78.50;;;;;;5033512;28;20086;-73
2023/01/01 11:57:15;;;;;;;3.33;3.03;;;9.90;78.70;;;;;;5032292;28;20029;-74
2023/01/01 11:59:54;;;;;;;3.17;2.80;;;9.90;78.70;;;;;;5033975;28;20949;-74
2023/01/01 12:02:35;;;;;;;3.75;3.00;;;9.90;79.30;;;;;;5032753;28;20106;-76
2023/01/01 12:05:23;;;;;;;3.17;2.50;;;9.90;78.80;;;;;;5046477;28;20041;-74
2023/01/01 12:07:50;;;;;;;4.78;2.60;;;9.90;78.90;;;;;;5030629;28;20037;-74
2023/01/01 12:10:37;;;;;;;2.97;2.53;;;9.90;79.00;;;;;;5032952;28;20061;-75
2023/01/01 12:13:12;;;;;;;3.22;2.55;;;9.80;79.10;;;;;;5032029;28;20042;-74
2023/01/01 12:15:45;;;;;;;3.50;2.65;;;9.80;79.20;;;;;;5036109;28;20369;-73
2023/01/01 12:18:23;;;;;;;2.90;2.60;;;9.80;79.10;;;;;;5033062;28;20049;-73
2023/01/01 12:21:18;;;;;;;2.40;2.15;;;9.80;79.10;;;;;;5036917;28;20399;-73
2023/01/01 12:23:44;;;;;;;3.70;2.15;;;9.80;79.30;;;;;;5047573;28;20059;-73
2023/01/01 12:26:25;;;;;;;3.42;2.45;;;9.80;79.40;;;;;;5040946;28;20041;-74
2023/01/01 12:29:19;;;;;;;2.60;2.40;;;9.80;79.50;;;;;;5008776;28;20128;-75
2023/01/01 12:31:54;;;;;;;2.80;2.60;;;9.80;79.50;;;;;;5042648;28;20587;-78
2023/01/01 12:34:41;;;;;;;3.58;2.40;;;9.80;79.50;;;;;;5043654;28;20492;-76
2023/01/01 12:37:12;;;;;;;;;;;9.80;79.70;;;;;;5030811;28;20040;-75
2023/01/01 12:40:00;;;;;;;2.88;2.60;;;9.80;79.70;;;;;;5030585;28;20012;-78
2023/01/01 12:42:47;;;;;;;3.10;2.10;;;9.80;79.70;;;;;;5033041;28;20676;-75
2023/01/01 12:45:39;;;;;;;3.65;2.50;;;9.80;79.80;;;;;;5065267;28;20041;-76
2023/01/01 12:48:37;;;;;;;2.95;2.65;;;9.80;80.00;;;;;;5032179;28;20361;-77
2023/01/01 12:51:22;;;;;;;2.75;2.47;;;9.80;80.10;;;;;;5032871;28;20041;-77
2023/01/01 12:54:07;;;;;;;3.63;2.28;;;9.80;80.20;;;;;;5037014;28;20508;-75
2023/01/01 12:56:50;;;;;;;2.40;2.20;;;9.80;80.30;;;;;;5063827;28;20776;-75
2023/01/01 12:59:23;;;;;;;2.72;2.20;;;9.80;80.40;;;;;;5029419;28;20034;-74
2023/01/01 13:01:54;;;;;;;2.40;2.20;;;9.80;80.50;;;;;;5046361;28;20044;-77
2023/01/01 13:04:22;;;;;;;2.70;2.42;;;9.80;80.50;;;;;;5030050;28;20123;-78
2023/01/01 13:06:50;;;;;;;3.60;2.65;;;9.80;80.60;;;;;;5017005;28;20045;-80